Time;durP1;ratioP1;P1;durP2;ratioP2;P2;SDS_P1;SDS_P2;PMS_P1;PMS_P2;Temp;Humidity;BMP_temperature;BMP_pressure;BME280_temperature;BME280_humidity;BME280_pressure;Samples;Min_cycle;Max_cycle;Signal;HPM_P1;HPM_P2
2022/09/15 00:00:56;;;;;;;0.20;0.10;;;;;;;;;;5038069;28;20053;-86
2022/09/15 00:03:31;;;;;;;0.20;0.03;;;;;;;;;;5037662;28;20558;-86
2022/09/15 00:06:10;;;;;;;0.20;0.10;;;;;;;;;;5036610;28;20148;-86
2022/09/15 00:08:39;;;;;;;0.20;0.10;;;;;;;;;;5054478;28;20040;-86
2022/09/15 00:11:42;;;;;;;0.20;0.10;;;;;;;;;;5025418;28;21082;-86
2022/09/15 00:14:11;;;;;;;0.20;0.10;;;;;;;;;;5023355;28;20048;-84
2022/09/15 00:16:40;;;;;;;0.20;0.10;;;;;;;;;;5054217;28;20036;-82
2022/09/15 00:19:06;;;;;;;0.20;0.10;;;;;;;;;;5038526;28;20052;-86
2022/09/15 00:21:39;;;;;;;0.20;0.10;;;;;;;;;;5023539;28;20466;-85
2022/09/15 00:24:09;;;;;;;0.20;0.10;;;;;;;;;;5038891;28;20032;-84
2022/09/15 00:26:36;;;;;;;0.20;0.10;;;;;;;;;;5035624;28;20052;-83
2022/09/15 00:29:02;;;;;;;0.20;0.10;;;;;;;;;;5017614;28;20710;-85
2022/09/15 00:31:32;;;;;;;0.20;0.10;;;;;;;;;;5021823;28;20056;-85
2022/09/15 00:34:01;;;;;;;0.20;0.10;;;;;;;;;;5029262;28;20041;-85
2022/09/15 00:36:28;;;;;;;0.20;0.03;;;;;;;;;;5021802;28;20052;-86
2022/09/15 00:38:54;;;;;;;0.20;0.10;;;;;;;;;;5025389;28;20134;-86
2022/09/15 00:41:22;;;;;;;0.20;0.10;;;;;;;;;;5020961;28;20078;-85
2022/09/15 00:43:51;;;;;;;0.20;0.10;;;;;;;;;;5021470;28;20620;-84
2022/09/15 00:46:19;;;;;;;0.20;0.10;;;;;;;;;;5019854;28;20089;-86
2022/09/15 00:48:50;;;;;;;0.20;0.10;;;;;;;;;;5038654;28;20733;-85
2022/09/15 00:51:19;;;;;;;0.20;0.10;;;;;;;;;;5038910;28;20070;-82
2022/09/15 00:53:46;;;;;;;0.20;0.10;;;;;;;;;;5021381;28;20044;-85
2022/09/15 00:56:15;;;;;;;0.20;0.10;;;;;;;;;;5040464;28;20147;-85
2022/09/15 00:58:48;;;;;;;0.20;0.10;;;;;;;;;;5041771;28;20339;-84
2022/09/15 01:01:15;;;;;;;0.20;0.10;;;;;;;;;;5038662;28;20075;-83
2022/09/15 01:03:41;;;;;;;0.20;0.10;;;;;;;;;;5019633;28;20067;-84
2022/09/15 01:06:14;;;;;;;0.20;0.10;;;;;;;;;;5038346;28;20032;-80
2022/09/15 01:08:40;;;;;;;;;;;;;;;;;;5024810;28;20037;-84
2022/09/15 01:11:06;;;;;;;0.20;0.10;;;;;;;;;;5043395;28;19965;-84
2022/09/15 01:13:32;;;;;;;0.20;0.10;;;;;;;;;;5026252;28;20500;-85
2022/09/15 01:16:18;;;;;;;0.20;0.10;;;;;;;;;;5025800;28;20040;-82
2022/09/15 01:18:50;;;;;;;0.20;0.10;;;;;;;;;;5023202;28;20036;-85
2022/09/15 01:21:28;;;;;;;0.20;0.10;;;;;;;;;;5056745;28;20033;-86
2022/09/15 01:23:55;;;;;;;0.20;0.10;;;;;;;;;;5043478;28;20048;-82
2022/09/15 01:26:33;;;;;;;0.20;0.10;;;;;;;;;;5037232;28;20041;-83
2022/09/15 01:28:59;;;;;;;0.20;0.10;;;;;;;;;;5057343;28;20036;-83
2022/09/15 01:33:02;;;;;;;0.20;0.10;;;;;;;;;;5029751;28;20510;-82
2022/09/15 01:34:25;;;;;;;0.20;0.10;;;;;;;;;;5041222;28;20068;-83
2022/09/15 01:36:55;;;;;;;0.20;0.10;;;;;;;;;;5042389;28;20064;-83
2022/09/15 01:39:25;;;;;;;0.20;0.10;;;;;;;;;;5024200;28;20048;-82
2022/09/15 01:41:54;;;;;;;0.20;0.00;;;;;;;;;;5041556;28;20049;-83
2022/09/15 01:44:32;;;;;;;0.20;0.10;;;;;;;;;;5041828;28;20955;-82
2022/09/15 01:47:01;;;;;;;0.20;0.10;;;;;;;;;;5040450;28;20524;-84
2022/09/15 01:49:29;;;;;;;0.20;0.10;;;;;;;;;;5023494;28;20135;-84
2022/09/15 01:51:55;;;;;;;0.20;0.10;;;;;;;;;;5042106;28;20037;-83
2022/09/15 01:54:23;;;;;;;0.20;0.10;;;;;;;;;;5006253;28;20032;-83
2022/09/15 01:56:49;;;;;;;0.20;0.10;;;;;;;;;;5028899;28;20043;-83
2022/09/15 01:59:16;;;;;;;0.20;0.10;;;;;;;;;;5024535;28;20511;-84
2022/09/15 02:01:50;;;;;;;0.20;0.10;;;;;;;;;;5044090;28;20048;-84
2022/09/15 02:04:28;;;;;;;0.20;0.10;;;;;;;;;;5022685;28;20041;-84
2022/09/15 02:06:58;;;;;;;0.20;0.10;;;;;;;;;;5040135;28;20052;-84
2022/09/15 02:09:35;;;;;;;0.20;0.10;;;;;;;;;;5020415;28;20699;-84
2022/09/15 02:12:20;;;;;;;0.20;0.10;;;;;;;;;;5022817;28;20051;-84
2022/09/15 02:14:51;;;;;;;0.20;0.10;;;;;;;;;;5024185;28;20044;-84
2022/09/15 02:17:19;;;;;;;0.20;0.10;;;;;;;;;;5024216;28;20078;-85
2022/09/15 02:19:48;;;;;;;0.20;0.10;;;;;;;;;;5027761;28;20053;-85
2022/09/15 02:22:26;;;;;;;0.20;0.10;;;;;;;;;;5042444;28;20514;-85
2022/09/15 02:24:56;;;;;;;0.20;0.10;;;;;;;;;;5042543;28;20115;-84
2022/09/15 02:27:24;;;;;;;0.20;0.10;;;;;;;;;;5044298;28;20029;-84
2022/09/15 02:29:51;;;;;;;0.20;0.10;;;;;;;;;;5023063;28;20032;-84
2022/09/15 02:32:18;;;;;;;0.20;0.10;;;;;;;;;;5028110;28;20101;-83
2022/09/15 02:34:46;;;;;;;0.20;0.10;;;;;;;;;;5039620;28;20044;-83
2022/09/15 02:37:13;;;;;;;0.20;0.10;;;;;;;;;;5037728;28;20068;-83
2022/09/15 02:39:41;;;;;;;0.20;0.10;;;;;;;;;;5022127;28;20035;-84
2022/09/15 02:42:09;;;;;;;0.20;0.10;;;;;;;;;;5038452;28;20090;-82
2022/09/15 02:44:38;;;;;;;0.20;0.10;;;;;;;;;;5022522;28;20445;-87
2022/09/15 02:47:04;;;;;;;0.20;0.10;;;;;;;;;;5037038;28;20443;-85
2022/09/15 02:49:30;;;;;;;0.20;0.10;;;;;;;;;;5042590;28;20044;-83
2022/09/15 02:51:56;;;;;;;0.20;0.10;;;;;;;;;;5024019;28;20055;-82
2022/09/15 02:54:22;;;;;;;0.20;0.10;;;;;;;;;;5040403;28;20120;-87
2022/09/15 02:56:49;;;;;;;0.20;0.10;;;;;;;;;;5023881;28;20040;-85
2022/09/15 02:59:15;;;;;;;0.20;0.10;;;;;;;;;;5023910;28;20147;-83
2022/09/15 03:01:41;;;;;;;0.20;0.10;;;;;;;;;;5017561;28;20916;-84
2022/09/15 03:04:07;;;;;;;0.20;0.10;;;;;;;;;;5010605;28;20529;-85
2022/09/15 03:06:33;;;;;;;0.20;0.10;;;;;;;;;;5009633;28;20039;-86
2022/09/15 03:09:07;;;;;;;0.20;0.10;;;;;;;;;;5026647;28;20048;-86
2022/09/15 03:11:33;;;;;;;0.20;0.10;;;;;;;;;;5037916;28;20051;-87
2022/09/15 03:14:04;;;;;;;0.20;0.10;;;;;;;;;;5026550;28;20574;-88
2022/09/15 03:16:31;;;;;;;0.20;0.10;;;;;;;;;;5060575;28;20074;-88
2022/09/15 03:18:58;;;;;;;0.20;0.10;;;;;;;;;;5027755;28;20044;-88
2022/09/15 03:21:24;;;;;;;0.20;0.10;;;;;;;;;;5029817;28;20067;-87
2022/09/15 03:23:50;;;;;;;0.20;0.10;;;;;;;;;;5028538;28;20033;-89
2022/09/15 03:26:16;;;;;;;0.20;0.10;;;;;;;;;;5062267;28;20120;-88
2022/09/15 03:28:43;;;;;;;0.20;0.10;;;;;;;;;;5038628;28;20483;-87
2022/09/15 03:31:18;;;;;;;0.20;0.10;;;;;;;;;;5024737;28;20530;-86
2022/09/15 03:34:20;;;;;;;0.20;0.10;;;;;;;;;;5041075;28;20052;-87
2022/09/15 03:37:24;;;;;;;0.20;0.10;;;;;;;;;;5029872;28;20063;-87
2022/09/15 03:39:53;;;;;;;0.20;0.10;;;;;;;;;;5025116;28;20083;-86
2022/09/15 03:42:39;;;;;;;;;;;;;;;;;;;;;
2022/09/15 03:45:21;;;;;;;0.20;0.10;;;;;;;;;;5039361;28;20055;-86
2022/09/15 03:48:12;;;;;;;0.20;0.10;;;;;;;;;;5023314;28;20052;-86
2022/09/15 03:50:41;;;;;;;0.20;0.10;;;;;;;;;;5036560;28;20547;-88
2022/09/15 03:53:07;;;;;;;0.20;0.10;;;;;;;;;;5041637;28;20110;-86
2022/09/15 03:55:33;;;;;;;0.20;0.10;;;;;;;;;;5024535;28;20139;-84
2022/09/15 03:57:59;;;;;;;0.20;0.10;;;;;;;;;;5038957;28;20044;-85
2022/09/15 04:00:25;;;;;;;0.20;0.10;;;;;;;;;;5018887;28;20040;-85
2022/09/15 04:02:54;;;;;;;0.20;0.10;;;;;;;;;;5023567;28;20044;-86
2022/09/15 04:05:20;;;;;;;0.20;0.10;;;;;;;;;;5019540;28;20104;-86
2022/09/15 04:07:46;;;;;;;0.20;0.10;;;;;;;;;;5038448;28;20048;-85
2022/09/15 04:10:13;;;;;;;0.20;0.10;;;;;;;;;;5021968;28;20104;-86
2022/09/15 04:12:39;;;;;;;0.20;0.10;;;;;;;;;;5020331;28;20036;-85
2022/09/15 04:15:08;;;;;;;0.20;0.10;;;;;;;;;;5039800;28;20044;-86
2022/09/15 04:17:35;;;;;;;0.20;0.10;;;;;;;;;;5019520;28;20037;-84
2022/09/15 04:20:01;;;;;;;0.20;0.10;;;;;;;;;;5001824;28;20060;-84
2022/09/15 04:22:30;;;;;;;0.20;0.10;;;;;;;;;;5020520;28;20627;-83
2022/09/15 04:24:56;;;;;;;0.20;0.10;;;;;;;;;;5034438;28;20042;-84
2022/09/15 04:27:22;;;;;;;0.20;0.10;;;;;;;;;;5016688;28;20036;-84
2022/09/15 04:29:51;;;;;;;0.20;0.10;;;;;;;;;;5030870;28;20086;-84
2022/09/15 04:32:17;;;;;;;0.20;0.10;;;;;;;;;;5032819;28;20094;-85
2022/09/15 04:34:43;;;;;;;0.20;0.10;;;;;;;;;;5030656;23;20054;-85
2022/09/15 04:37:09;;;;;;;0.20;0.10;;;;;;;;;;4976978;28;20724;-83
2022/09/15 04:39:35;;;;;;;0.20;0.10;;;;;;;;;;5017042;28;20514;-85
2022/09/15 04:42:04;;;;;;;0.20;0.10;;;;;;;;;;5014721;28;20912;-84
2022/09/15 04:44:31;;;;;;;0.20;0.10;;;;;;;;;;4984561;28;20045;-84
2022/09/15 04:46:57;;;;;;;0.20;0.10;;;;;;;;;;5008093;28;20052;-84
2022/09/15 04:49:23;;;;;;;0.20;0.10;;;;;;;;;;4997570;28;20045;-85
2022/09/15 04:51:52;;;;;;;0.20;0.10;;;;;;;;;;5020863;28;20086;-84
2022/09/15 04:54:18;;;;;;;0.20;0.10;;;;;;;;;;4995721;28;20376;-84
2022/09/15 04:56:44;;;;;;;0.20;0.10;;;;;;;;;;5020639;28;20044;-83
2022/09/15 04:59:14;;;;;;;0.20;0.10;;;;;;;;;;5022425;28;20650;-84
2022/09/15 05:01:40;;;;;;;0.20;0.10;;;;;;;;;;5000737;28;20038;-84
2022/09/15 05:04:07;;;;;;;0.20;0.10;;;;;;;;;;4998589;28;20554;-85
2022/09/15 05:06:33;;;;;;;0.20;0.10;;;;;;;;;;5015987;28;20037;-84
2022/09/15 05:09:00;;;;;;;0.20;0.10;;;;;;;;;;5008166;28;20041;-84
2022/09/15 05:11:27;;;;;;;0.20;0.10;;;;;;;;;;5010628;28;20041;-88
2022/09/15 05:13:53;;;;;;;0.20;0.10;;;;;;;;;;5001589;28;20045;-85
2022/09/15 05:16:21;;;;;;;0.20;0.10;;;;;;;;;;4996301;28;20044;-84
2022/09/15 05:18:48;;;;;;;0.20;0.08;;;;;;;;;;5013957;28;20048;-84
2022/09/15 05:21:15;;;;;;;0.20;0.10;;;;;;;;;;5024363;28;20126;-84
2022/09/15 05:23:41;;;;;;;0.20;0.10;;;;;;;;;;4993318;28;20037;-86
2022/09/15 05:26:08;;;;;;;0.20;0.10;;;;;;;;;;5012498;28;20080;-83
2022/09/15 05:28:35;;;;;;;0.20;0.10;;;;;;;;;;5006738;28;20103;-84
2022/09/15 05:31:02;;;;;;;0.20;0.10;;;;;;;;;;4995924;28;20152;-85
2022/09/15 05:33:28;;;;;;;0.20;0.10;;;;;;;;;;4991129;28;20052;-84
2022/09/15 05:35:57;;;;;;;0.20;0.10;;;;;;;;;;4975967;28;20413;-82
2022/09/15 05:38:24;;;;;;;0.20;0.10;;;;;;;;;;4998266;28;20140;-84
2022/09/15 05:40:51;;;;;;;0.20;0.10;;;;;;;;;;4976887;28;20049;-83
2022/09/15 05:43:17;;;;;;;0.20;0.10;;;;;;;;;;5008348;28;20790;-84
2022/09/15 05:45:44;;;;;;;0.20;0.10;;;;;;;;;;5011563;28;20048;-84
2022/09/15 05:48:10;;;;;;;0.20;0.10;;;;;;;;;;5015318;28;20049;-85
2022/09/15 05:50:50;;;;;;;0.20;0.10;;;;;;;;;;5004962;28;20040;-85
2022/09/15 05:53:16;;;;;;;0.20;0.10;;;;;;;;;;5008098;28;20041;-86
2022/09/15 05:55:42;;;;;;;0.20;0.10;;;;;;;;;;5018012;28;20399;-84
2022/09/15 05:58:09;;;;;;;0.20;0.10;;;;;;;;;;5007102;28;20491;-83
2022/09/15 06:00:35;;;;;;;0.20;0.10;;;;;;;;;;5008214;28;20175;-83
2022/09/15 06:03:01;;;;;;;0.20;0.10;;;;;;;;;;5008053;28;20122;-85
2022/09/15 06:05:27;;;;;;;0.20;0.10;;;;;;;;;;5003749;28;20052;-83
2022/09/15 06:07:54;;;;;;;0.20;0.10;;;;;;;;;;5001768;28;21083;-84
2022/09/15 06:10:23;;;;;;;0.20;0.10;;;;;;;;;;5020875;28;20063;-84
2022/09/15 06:12:53;;;;;;;0.20;0.10;;;;;;;;;;4992967;28;20495;-84
2022/09/15 06:15:20;;;;;;;0.20;0.10;;;;;;;;;;4993640;28;20049;-83
2022/09/15 06:17:46;;;;;;;0.20;0.05;;;;;;;;;;5014753;28;20045;-86
2022/09/15 06:20:12;;;;;;;0.20;0.10;;;;;;;;;;4987260;28;20792;-84
2022/09/15 06:22:38;;;;;;;0.20;0.10;;;;;;;;;;4985787;28;20055;-85
2022/09/15 06:25:05;;;;;;;0.20;0.10;;;;;;;;;;5002613;28;20044;-84
2022/09/15 06:27:31;;;;;;;0.20;0.10;;;;;;;;;;5020515;28;20071;-84
2022/09/15 06:29:57;;;;;;;0.20;0.10;;;;;;;;;;5018125;28;20119;-86
2022/09/15 06:32:23;;;;;;;0.20;0.10;;;;;;;;;;5000703;28;20233;-84
2022/09/15 06:34:49;;;;;;;0.20;0.10;;;;;;;;;;4981441;28;20040;-84
2022/09/15 06:37:16;;;;;;;0.20;0.10;;;;;;;;;;5012852;28;20465;-85
2022/09/15 06:39:42;;;;;;;0.20;0.10;;;;;;;;;;4981240;28;20040;-84
2022/09/15 06:42:09;;;;;;;0.20;0.10;;;;;;;;;;5003255;28;20067;-84
2022/09/15 06:44:35;;;;;;;0.20;0.05;;;;;;;;;;5029028;28;20048;-85
2022/09/15 06:47:01;;;;;;;0.20;0.10;;;;;;;;;;5004161;28;20037;-83
2022/09/15 06:49:27;;;;;;;0.20;0.10;;;;;;;;;;5023885;28;20044;-86
2022/09/15 06:51:55;;;;;;;0.20;0.10;;;;;;;;;;5009739;28;20041;-85
2022/09/15 06:54:21;;;;;;;0.20;0.10;;;;;;;;;;5009968;28;20068;-86
2022/09/15 06:56:47;;;;;;;0.20;0.10;;;;;;;;;;5025833;28;20419;-84
2022/09/15 06:59:14;;;;;;;0.20;0.10;;;;;;;;;;5012413;28;20041;-88
2022/09/15 07:01:40;;;;;;;0.20;0.10;;;;;;;;;;5003246;28;20133;-92
2022/09/15 07:04:08;;;;;;;0.20;0.10;;;;;;;;;;5024611;28;20521;-88
2022/09/15 07:06:36;;;;;;;0.20;0.10;;;;;;;;;;5023009;28;20051;-93
2022/09/15 07:09:02;;;;;;;0.20;0.10;;;;;;;;;;5002542;28;20044;-88
2022/09/15 07:11:30;;;;;;;0.20;0.10;;;;;;;;;;5012984;28;20048;-85
2022/09/15 07:13:56;;;;;;;0.20;0.10;;;;;;;;;;5011258;28;20364;-86
2022/09/15 07:16:24;;;;;;;0.20;0.10;;;;;;;;;;5008539;28;20258;-91
2022/09/15 07:18:50;;;;;;;0.20;0.10;;;;;;;;;;5024941;28;20047;-89
2022/09/15 07:21:18;;;;;;;0.20;0.10;;;;;;;;;;5006800;28;20048;-88
2022/09/15 07:23:48;;;;;;;0.20;0.10;;;;;;;;;;5020187;28;20083;-90
2022/09/15 07:26:16;;;;;;;0.20;0.00;;;;;;;;;;5008241;28;20029;-85
2022/09/15 07:28:44;;;;;;;0.20;0.10;;;;;;;;;;5021656;28;20029;-88
2022/09/15 07:31:12;;;;;;;0.20;0.10;;;;;;;;;;5009159;28;20045;-86
2022/09/15 07:33:38;;;;;;;0.20;0.10;;;;;;;;;;5019406;28;20044;-86
2022/09/15 07:36:05;;;;;;;0.20;0.10;;;;;;;;;;5027487;28;20094;-88
2022/09/15 07:38:31;;;;;;;0.20;0.08;;;;;;;;;;5028340;28;20170;-88
2022/09/15 07:41:04;;;;;;;0.20;0.10;;;;;;;;;;5008747;28;20339;-85
2022/09/15 07:43:31;;;;;;;0.20;0.10;;;;;;;;;;5019407;28;20103;-88
2022/09/15 07:45:57;;;;;;;0.20;0.10;;;;;;;;;;5020383;28;20495;-87
2022/09/15 07:48:23;;;;;;;0.20;0.10;;;;;;;;;;5022121;28;20056;-89
2022/09/15 07:50:50;;;;;;;0.20;0.00;;;;;;;;;;5024762;28;20048;-86
2022/09/15 07:53:16;;;;;;;0.20;0.10;;;;;;;;;;5026938;28;20037;-86
2022/09/15 07:55:42;;;;;;;0.20;0.10;;;;;;;;;;5013462;28;20194;-87
2022/09/15 07:58:08;;;;;;;0.20;0.10;;;;;;;;;;5015368;28;20040;-86
2022/09/15 08:00:34;;;;;;;0.20;0.03;;;;;;;;;;5033558;28;20033;-88
2022/09/15 08:03:00;;;;;;;0.20;0.00;;;;;;;;;;5014167;28;20041;-88
2022/09/15 08:05:27;;;;;;;0.20;0.08;;;;;;;;;;5001240;28;20044;-88
2022/09/15 08:07:56;;;;;;;0.20;0.10;;;;;;;;;;5010630;28;20094;-87
2022/09/15 08:10:26;;;;;;;0.20;0.10;;;;;;;;;;5013968;28;20893;-87
2022/09/15 08:12:52;;;;;;;0.20;0.10;;;;;;;;;;5011170;28;20041;-91
2022/09/15 08:15:19;;;;;;;0.20;0.10;;;;;;;;;;5024403;28;20041;-89
2022/09/15 08:17:45;;;;;;;0.20;0.03;;;;;;;;;;5012474;28;22165;-88
2022/09/15 08:20:11;;;;;;;0.20;0.10;;;;;;;;;;5028667;28;20041;-91
2022/09/15 08:22:38;;;;;;;0.20;0.10;;;;;;;;;;5014040;28;20492;-84
2022/09/15 08:25:05;;;;;;;0.20;0.10;;;;;;;;;;5011369;28;20037;-86
2022/09/15 08:27:31;;;;;;;0.20;0.10;;;;;;;;;;5047115;28;20123;-85
2022/09/15 08:29:57;;;;;;;0.20;0.10;;;;;;;;;;5011294;28;20264;-88
2022/09/15 08:32:26;;;;;;;0.20;0.10;;;;;;;;;;5006733;28;20505;-88
2022/09/15 08:34:58;;;;;;;0.20;0.10;;;;;;;;;;5025572;28;20041;-89
2022/09/15 08:37:24;;;;;;;0.20;0.10;;;;;;;;;;5018931;28;20028;-87
2022/09/15 08:39:50;;;;;;;0.20;0.10;;;;;;;;;;5042388;28;20048;-86
2022/09/15 08:42:18;;;;;;;0.20;0.10;;;;;;;;;;5004986;28;20033;-89
2022/09/15 08:44:48;;;;;;;0.20;0.10;;;;;;;;;;5022624;28;20049;-87
2022/09/15 08:47:27;;;;;;;0.20;0.10;;;;;;;;;;5005474;28;20039;-87
2022/09/15 08:50:12;;;;;;;0.20;0.10;;;;;;;;;;5023088;28;20068;-86
2022/09/15 08:52:43;;;;;;;0.20;0.10;;;;;;;;;;5010505;28;20041;-85
2022/09/15 08:55:23;;;;;;;0.20;0.10;;;;;;;;;;5046187;28;20041;-87
2022/09/15 08:57:52;;;;;;;0.20;0.10;;;;;;;;;;5013044;28;20137;-91
2022/09/15 09:00:18;;;;;;;0.20;0.10;;;;;;;;;;5010239;28;20124;-85
2022/09/15 09:02:49;;;;;;;0.20;0.10;;;;;;;;;;5026058;28;20040;-87
2022/09/15 09:05:35;;;;;;;0.20;0.10;;;;;;;;;;5028400;28;20051;-89
2022/09/15 09:08:20;;;;;;;0.20;0.10;;;;;;;;;;5013834;28;20120;-86
2022/09/15 09:10:50;;;;;;;0.20;0.10;;;;;;;;;;5004716;28;20041;-87
2022/09/15 09:13:21;;;;;;;0.20;0.10;;;;;;;;;;5028701;28;20132;-91
2022/09/15 09:16:02;;;;;;;0.20;0.10;;;;;;;;;;5013604;28;20084;-89
2022/09/15 09:18:31;;;;;;;0.20;0.10;;;;;;;;;;5011975;28;20041;-85
2022/09/15 09:21:05;;;;;;;0.20;0.10;;;;;;;;;;5009461;28;20045;-89
2022/09/15 09:23:33;;;;;;;0.20;0.10;;;;;;;;;;5015502;28;20045;-88
2022/09/15 09:26:00;;;;;;;0.20;0.10;;;;;;;;;;5032771;28;20424;-89
2022/09/15 09:28:51;;;;;;;0.20;0.10;;;;;;;;;;5028710;28;20033;-90
2022/09/15 09:31:24;;;;;;;0.20;0.10;;;;;;;;;;5009383;28;20067;-86
2022/09/15 09:33:56;;;;;;;0.20;0.10;;;;;;;;;;5031310;28;20082;-88
2022/09/15 09:36:22;;;;;;;0.20;0.10;;;;;;;;;;5046181;28;20039;-90
2022/09/15 09:38:49;;;;;;;0.20;0.10;;;;;;;;;;5018482;28;21592;-87
2022/09/15 09:41:37;;;;;;;0.20;0.10;;;;;;;;;;5017567;28;20036;-86
2022/09/15 09:44:12;;;;;;;0.20;0.10;;;;;;;;;;5032205;28;20098;-87
2022/09/15 09:46:45;;;;;;;0.20;0.10;;;;;;;;;;5013819;28;20047;-90
2022/09/15 09:49:17;;;;;;;0.20;0.10;;;;;;;;;;5017469;28;20071;-87
2022/09/15 09:51:53;;;;;;;0.20;0.10;;;;;;;;;;5013643;28;20045;-87
2022/09/15 09:54:20;;;;;;;0.20;0.10;;;;;;;;;;5033619;28;20041;-88
2022/09/15 09:56:48;;;;;;;0.20;0.10;;;;;;;;;;5018531;28;20044;-88
2022/09/15 09:59:34;;;;;;;0.20;0.10;;;;;;;;;;5030213;28;20704;-83
2022/09/15 10:02:24;;;;;;;0.20;0.10;;;;;;;;;;5033632;28;20119;-87
2022/09/15 10:04:54;;;;;;;0.20;0.10;;;;;;;;;;5007266;28;20044;-89
2022/09/15 10:07:26;;;;;;;0.20;0.10;;;;;;;;;;5012689;28;20702;-88
2022/09/15 10:13:02;;;;;;;0.20;0.00;;;;;;;;;;5033249;28;20132;-88
2022/09/15 10:15:35;;;;;;;0.20;0.10;;;;;;;;;;5009709;28;20036;-89
2022/09/15 10:18:02;;;;;;;0.20;0.00;;;;;;;;;;5027846;28;20128;-89
2022/09/15 10:23:46;;;;;;;0.20;0.10;;;;;;;;;;5025822;28;20073;-91
2022/09/15 10:26:30;;;;;;;0.20;0.10;;;;;;;;;;5006347;28;20029;-88
2022/09/15 10:29:24;;;;;;;0.20;0.10;;;;;;;;;;5005590;28;20060;-91
2022/09/15 10:32:01;;;;;;;0.20;0.10;;;;;;;;;;5022604;28;20690;-89
2022/09/15 10:37:38;;;;;;;0.20;0.10;;;;;;;;;;4981488;28;20057;-83
2022/09/15 10:40:17;;;;;;;0.20;0.10;;;;;;;;;;4945500;28;20050;-87
2022/09/15 10:42:56;;;;;;;0.20;0.00;;;;;;;;;;4972982;28;20105;-86
2022/09/15 10:45:25;;;;;;;0.20;0.10;;;;;;;;;;4991060;28;20402;-85
2022/09/15 10:47:54;;;;;;;0.20;0.10;;;;;;;;;;4981397;28;20045;-88
2022/09/15 10:50:31;;;;;;;0.20;0.10;;;;;;;;;;4984728;28;20146;-87
2022/09/15 10:53:04;;;;;;;0.20;0.10;;;;;;;;;;4983026;28;20066;-88
2022/09/15 10:55:49;;;;;;;0.20;0.10;;;;;;;;;;4989784;28;20050;-88
2022/09/15 10:58:27;;;;;;;0.20;0.10;;;;;;;;;;4958373;28;20042;-87
2022/09/15 11:01:18;;;;;;;0.20;0.10;;;;;;;;;;4978720;28;20039;-88
2022/09/15 11:03:47;;;;;;;0.20;0.10;;;;;;;;;;4979932;28;20733;-87
2022/09/15 11:06:19;;;;;;;0.20;0.10;;;;;;;;;;4961904;28;20073;-87
2022/09/15 11:08:52;;;;;;;0.20;0.10;;;;;;;;;;4963847;28;20185;-87
2022/09/15 11:11:18;;;;;;;0.20;0.10;;;;;;;;;;4982749;28;20793;-86
2022/09/15 11:14:05;;;;;;;0.20;0.10;;;;;;;;;;4978772;28;20121;-87
2022/09/15 11:16:34;;;;;;;0.20;0.10;;;;;;;;;;4976156;28;20042;-86
2022/09/15 11:19:00;;;;;;;0.20;0.10;;;;;;;;;;4994457;28;20039;-84
2022/09/15 11:21:28;;;;;;;0.20;0.10;;;;;;;;;;4977978;28;20089;-83
2022/09/15 11:24:10;;;;;;;0.20;0.10;;;;;;;;;;4959846;28;20038;-84
2022/09/15 11:26:40;;;;;;;0.20;0.10;;;;;;;;;;4986637;28;20035;-84
2022/09/15 11:29:17;;;;;;;0.20;0.00;;;;;;;;;;4984161;28;20042;-86
2022/09/15 11:31:46;;;;;;;0.20;0.10;;;;;;;;;;4999618;28;20043;-87
2022/09/15 11:34:32;;;;;;;0.20;0.20;;;;;;;;;;4986009;28;20046;-87
2022/09/15 11:37:12;;;;;;;0.20;0.10;;;;;;;;;;4976016;28;20043;-87
2022/09/15 11:39:47;;;;;;;0.20;0.10;;;;;;;;;;4979315;28;20101;-87
2022/09/15 11:42:15;;;;;;;0.20;0.10;;;;;;;;;;4964433;28;20039;-87
2022/09/15 11:44:57;;;;;;;0.20;0.10;;;;;;;;;;4979966;28;20047;-87
2022/09/15 11:47:44;;;;;;;0.20;0.10;;;;;;;;;;4963232;28;20090;-87
2022/09/15 11:50:11;;;;;;;0.20;0.10;;;;;;;;;;4979219;28;20508;-88
2022/09/15 11:52:53;;;;;;;0.20;0.10;;;;;;;;;;4961469;28;20041;-88
2022/09/15 11:55:37;;;;;;;0.20;0.10;;;;;;;;;;4964443;28;20764;-87
2022/09/15 11:58:14;;;;;;;0.20;0.10;;;;;;;;;;4957158;28;20054;-86
2022/09/15 12:01:19;;;;;;;0.20;0.10;;;;;;;;;;4966202;28;20051;-85
2022/09/15 12:04:08;;;;;;;0.20;0.10;;;;;;;;;;4981447;28;20038;-86
2022/09/15 12:06:34;;;;;;;0.20;0.10;;;;;;;;;;4978600;28;20131;-86
2022/09/15 12:09:16;;;;;;;0.20;0.10;;;;;;;;;;4962094;28;20859;-87
2022/09/15 12:11:53;;;;;;;0.20;0.10;;;;;;;;;;4950877;28;20054;-85
2022/09/15 12:14:35;;;;;;;0.20;0.10;;;;;;;;;;4995385;28;20086;-84
2022/09/15 12:17:01;;;;;;;0.20;0.10;;;;;;;;;;4962617;28;20078;-83
2022/09/15 12:19:51;;;;;;;0.20;0.10;;;;;;;;;;4990337;28;20050;-86
2022/09/15 12:22:30;;;;;;;0.20;0.10;;;;;;;;;;4965394;28;20517;-87
2022/09/15 12:25:00;;;;;;;0.20;0.10;;;;;;;;;;4962293;28;20063;-85
2022/09/15 12:27:27;;;;;;;0.20;0.10;;;;;;;;;;4966779;28;20042;-87
2022/09/15 12:29:58;;;;;;;0.20;0.10;;;;;;;;;;4976966;28;20054;-85
2022/09/15 12:32:34;;;;;;;0.20;0.10;;;;;;;;;;4978932;28;20050;-85
2022/09/15 12:35:02;;;;;;;0.20;0.10;;;;;;;;;;4987182;28;20039;-86
2022/09/15 12:37:46;;;;;;;0.20;0.10;;;;;;;;;;4998867;28;20053;-85
2022/09/15 12:40:34;;;;;;;0.20;0.10;;;;;;;;;;4982169;28;20084;-85
2022/09/15 12:43:12;;;;;;;0.20;0.00;;;;;;;;;;4982002;28;20130;-85
2022/09/15 12:45:46;;;;;;;0.20;0.10;;;;;;;;;;5028070;23;20416;-84
2022/09/15 12:48:35;;;;;;;0.20;0.10;;;;;;;;;;4984878;28;20174;-85
2022/09/15 12:51:11;;;;;;;0.20;0.10;;;;;;;;;;4984476;28;20054;-84
2022/09/15 12:53:45;;;;;;;0.20;0.10;;;;;;;;;;5014493;28;20045;-84
2022/09/15 12:56:24;;;;;;;0.20;0.10;;;;;;;;;;5007014;23;20056;-83
2022/09/15 12:58:54;;;;;;;0.20;0.10;;;;;;;;;;5021988;28;20564;-85
2022/09/15 13:01:23;;;;;;;0.20;0.10;;;;;;;;;;5010888;28;20056;-84
2022/09/15 13:03:56;;;;;;;0.20;0.10;;;;;;;;;;5014257;28;20048;-85
2022/09/15 13:06:37;;;;;;;0.20;0.10;;;;;;;;;;5048755;28;20049;-84
2022/09/15 13:09:06;;;;;;;0.20;0.10;;;;;;;;;;5041530;22;20106;-85
2022/09/15 13:12:00;;;;;;;0.20;0.10;;;;;;;;;;5007693;28;20049;-85
2022/09/15 13:14:26;;;;;;;0.20;0.10;;;;;;;;;;4995460;28;20087;-87
2022/09/15 13:16:59;;;;;;;0.20;0.10;;;;;;;;;;5010931;28;20046;-84
2022/09/15 13:19:25;;;;;;;;;;;;;;;;;;5001563;28;20077;-86
2022/09/15 13:22:11;;;;;;;0.20;0.10;;;;;;;;;;4992999;28;19976;-85
2022/09/15 13:25:02;;;;;;;0.20;0.10;;;;;;;;;;4948538;28;20132;-87
2022/09/15 13:27:45;;;;;;;0.20;0.10;;;;;;;;;;4995771;28;20061;-86
2022/09/15 13:30:14;;;;;;;0.20;0.10;;;;;;;;;;4994921;28;20061;-85
2022/09/15 13:32:53;;;;;;;0.20;0.10;;;;;;;;;;5012365;28;20042;-85
2022/09/15 13:35:19;;;;;;;0.20;0.10;;;;;;;;;;4991533;28;20080;-87
2022/09/15 13:37:54;;;;;;;0.20;0.10;;;;;;;;;;4992105;28;20121;-89
2022/09/15 13:40:45;;;;;;;0.20;0.10;;;;;;;;;;4995202;28;20034;-91
2022/09/15 13:43:27;;;;;;;0.20;0.10;;;;;;;;;;4996589;28;20164;-89
2022/09/15 13:46:05;;;;;;;0.20;0.10;;;;;;;;;;4998277;28;20040;-88
2022/09/15 13:48:44;;;;;;;0.20;0.10;;;;;;;;;;4997012;28;20042;-90
2022/09/15 13:51:14;;;;;;;0.20;0.10;;;;;;;;;;4996547;28;20408;-87
2022/09/15 13:53:46;;;;;;;0.20;0.10;;;;;;;;;;4994678;28;20112;-87
2022/09/15 13:56:26;;;;;;;0.20;0.10;;;;;;;;;;4995898;28;20038;-87
2022/09/15 13:58:52;;;;;;;0.20;0.10;;;;;;;;;;5000992;28;20057;-87
2022/09/15 14:01:21;;;;;;;0.20;0.10;;;;;;;;;;4996788;28;20048;-90
2022/09/15 14:03:59;;;;;;;0.20;0.00;;;;;;;;;;4979236;28;20072;-88
2022/09/15 14:06:29;;;;;;;0.20;0.00;;;;;;;;;;4979152;28;20164;-89
2022/09/15 14:08:57;;;;;;;0.20;0.10;;;;;;;;;;4997819;28;20049;-89
2022/09/15 14:11:26;;;;;;;0.20;0.10;;;;;;;;;;4996233;28;20068;-91
2022/09/15 14:13:53;;;;;;;0.20;0.10;;;;;;;;;;4994639;28;20052;-90
2022/09/15 14:16:27;;;;;;;0.20;0.10;;;;;;;;;;4978599;28;20090;-88
2022/09/15 14:18:57;;;;;;;0.20;0.10;;;;;;;;;;4997835;28;20125;-87
2022/09/15 14:21:35;;;;;;;0.20;0.10;;;;;;;;;;5001551;28;20040;-87
2022/09/15 14:24:05;;;;;;;0.20;0.10;;;;;;;;;;4998887;28;20126;-87
2022/09/15 14:26:34;;;;;;;0.20;0.10;;;;;;;;;;5001171;28;20113;-89
2022/09/15 14:29:26;;;;;;;0.20;0.10;;;;;;;;;;4997410;28;20600;-86
2022/09/15 14:31:53;;;;;;;0.20;0.03;;;;;;;;;;4990610;28;20118;-89
2022/09/15 14:34:28;;;;;;;0.20;0.10;;;;;;;;;;4998546;28;20038;-87
2022/09/15 14:37:04;;;;;;;0.20;0.10;;;;;;;;;;4993744;28;20069;-87
2022/09/15 14:39:30;;;;;;;0.20;0.10;;;;;;;;;;4998021;28;20045;-87
2022/09/15 14:41:56;;;;;;;0.20;0.03;;;;;;;;;;4975764;28;20065;-88
2022/09/15 14:44:35;;;;;;;0.20;0.10;;;;;;;;;;4964132;28;20112;-89
2022/09/15 14:47:10;;;;;;;0.20;0.10;;;;;;;;;;4997867;28;20055;-90
2022/09/15 14:49:36;;;;;;;0.20;0.10;;;;;;;;;;4992690;28;20050;-90
2022/09/15 14:52:02;;;;;;;0.20;0.10;;;;;;;;;;4987075;28;20052;-89
2022/09/15 14:54:32;;;;;;;0.20;0.10;;;;;;;;;;4990233;28;20647;-86
2022/09/15 14:57:00;;;;;;;0.20;0.10;;;;;;;;;;4993768;28;20046;-89
2022/09/15 14:59:46;;;;;;;0.20;0.10;;;;;;;;;;4991370;28;20045;-85
2022/09/15 15:02:21;;;;;;;0.20;0.10;;;;;;;;;;4988322;28;20037;-88
2022/09/15 15:05:20;;;;;;;0.20;0.10;;;;;;;;;;4989478;28;20068;-88
2022/09/15 15:07:56;;;;;;;0.20;0.08;;;;;;;;;;4987826;28;20054;-88
2022/09/15 15:10:27;;;;;;;0.20;0.10;;;;;;;;;;4975867;28;20789;-85
2022/09/15 15:13:14;;;;;;;0.20;0.10;;;;;;;;;;4980524;28;20037;-87
2022/09/15 15:15:40;;;;;;;0.20;0.10;;;;;;;;;;4982896;28;20440;-87
2022/09/15 15:18:29;;;;;;;0.20;0.10;;;;;;;;;;4975007;28;20412;-86
2022/09/15 15:21:08;;;;;;;0.20;0.10;;;;;;;;;;4974125;28;20150;-88